Terminal Aerodrome Forecast
Issued by NWS Blacksburg, VA

Home | Current Version | Previous Version | Text Only | Print | Product List | Glossary On
Versions: 1 2 3 4 5 6 7 8 9 10 11 12 13
000
FTUS41 KRNK 010224 AAA
TAFROA
TAF AMD
KROA 010224Z 0102/0124 VRB03KT P6SM TSRA SCT030 BKN060CB OVC090
      TEMPO 0102/0103 P6SM NSW SCT060 BKN120
     FM011300 28005KT P6SM BKN080
     FM011700 31007KT P6SM VCTS BKN050CB BKN150=

USA.gov is the U.S. government's official web portal to all federal, state and local government web resources and services.